Main page
METAR-TAF:

METAR-TAF

Airports :

Itaituba Airport

Itaituba, Pará, Brazil

latitude: 04-15S, longitude: 056-00W, elevation: 34 m

Current weather observation

The report was made 6 hours and 9 minutes ago, at 21:00 UTC
Temperature 32°C
Humidity 56%
Pressure 1009 hPa
Visibility 10 km or more
Few clouds at a height of 2300 ft

METAR: SBIH 232100Z /////KT 9999 FEW023 32/22 Q1009

Time: 00:09 (03:09 UTC)

Forecast

The report was made 5 hours and 9 minutes ago, at 22:00 UTC
Forecast valid from 24 at 00 UTC to 24 at 12 UTC
Wind kt from the North
Visibility 10 km or more
no clouds below 1500 m and no cumulonimbus

TAF: SBIH 232200Z 2400/2412 00000KT CAVOK TN23/2406Z TX27/2412Z RMK PEH

Weather observations and forecasts of more than 4000 airports (METAR and TAF reports).

The available stations are represented by yellow and red dots on the map.

Hover mouse over dot to see the name of the station.

Then click to see weather observations and forecasts.

To change the map : click on the green buttons with a black cross to zoom in, on the green button with a dash to zoom out, or on the green arrows for adjacent maps.


METAR-TAF: